Time,TemperatureF,DewpointF,PressureIn,WindDirection,WindDirectionDegrees,WindSpeedMPH,WindSpeedGustMPH,Humidity,HourlyPrecipIn,Conditions,Clouds,dailyrainin,SoftwareType,DateUTC
2013-05-13 00:08:00,39.6,29.6,29.33,West,270,7.3,-999.0,67,-99.99,,,0.00,Acu-Link.com,2013-05-13 08:08:00,
2013-05-13 00:23:00,39.2,29.5,29.33,WSW,247,6.3,-999.0,68,-99.99,,,0.00,Acu-Link.com,2013-05-13 08:23:00,
2013-05-13 00:38:00,38.8,29.9,29.34,West,270,6.8,-999.0,70,-99.99,,,0.00,Acu-Link.com,2013-05-13 08:38:00,
2013-05-13 00:53:00,37.8,28.9,29.34,WSW,247,6.8,-999.0,70,-99.99,,,0.00,Acu-Link.com,2013-05-13 08:53:00,
2013-05-13 01:08:00,37.2,28.0,29.35,West,270,9.9,-999.0,69,-99.99,,,0.00,Acu-Link.com,2013-05-13 09:08:00,
2013-05-13 01:24:00,36.5,26.6,29.36,West,270,9.9,-999.0,67,-99.99,,,0.00,Acu-Link.com,2013-05-13 09:24:00,
2013-05-13 01:39:00,35.8,24.5,29.37,West,270,11.4,-999.0,63,-99.99,,,0.00,Acu-Link.com,2013-05-13 09:39:00,
2013-05-13 01:54:00,35.1,22.6,29.37,West,270,7.8,-999.0,60,-99.99,,,0.00,Acu-Link.com,2013-05-13 09:54:00,
2013-05-13 02:10:00,34.5,22.1,29.38,WSW,247,8.9,-999.0,60,-99.99,,,0.00,Acu-Link.com,2013-05-13 10:10:00,
2013-05-13 02:25:00,34.3,21.5,29.38,West,270,6.8,-999.0,59,-99.99,,,0.00,Acu-Link.com,2013-05-13 10:25:00,
2013-05-13 02:40:00,33.8,16.7,29.39,West,270,11.4,-999.0,49,-99.99,,,0.00,Acu-Link.com,2013-05-13 10:40:00,
2013-05-13 02:56:00,33.3,14.8,29.40,West,270,10.4,-999.0,46,-99.99,,,0.00,Acu-Link.com,2013-05-13 10:56:00,
2013-05-13 03:11:00,32.7,15.2,29.40,West,270,8.3,-999.0,48,-99.99,,,0.00,Acu-Link.com,2013-05-13 11:11:00,
2013-05-13 03:26:00,32.0,14.1,29.41,West,270,5.8,-999.0,47,-99.99,,,0.00,Acu-Link.com,2013-05-13 11:26:00,
2013-05-13 03:41:00,31.1,11.2,29.42,West,270,7.8,-999.0,43,-99.99,,,0.00,Acu-Link.com,2013-05-13 11:41:00,
2013-05-13 03:57:00,30.6,9.7,29.42,West,270,10.4,-999.0,41,-99.99,,,0.00,Acu-Link.com,2013-05-13 11:57:00,
2013-05-13 04:12:00,30.2,8.8,29.43,West,270,4.7,-999.0,40,-99.99,,,0.00,Acu-Link.com,2013-05-13 12:12:00,
2013-05-13 04:27:00,29.1,8.4,29.44,WSW,247,9.9,-999.0,41,-99.99,,,0.00,Acu-Link.com,2013-05-13 12:27:00,
2013-05-13 04:42:00,28.4,6.6,29.45,SW,225,11.4,-999.0,39,-99.99,,,0.00,Acu-Link.com,2013-05-13 12:42:00,
2013-05-13 04:57:00,27.5,6.4,29.45,WSW,247,14.0,-999.0,40,-99.99,,,0.00,Acu-Link.com,2013-05-13 12:57:00,
2013-05-13 05:13:00,27.0,6.5,29.46,West,270,14.5,-999.0,41,-99.99,,,0.00,Acu-Link.com,2013-05-13 13:13:00,
2013-05-13 05:28:00,26.4,6.5,29.47,SW,225,11.9,-999.0,42,-99.99,,,0.00,Acu-Link.com,2013-05-13 13:28:00,
2013-05-13 05:43:00,25.9,7.0,29.47,West,270,8.9,-999.0,44,-99.99,,,0.00,Acu-Link.com,2013-05-13 13:43:00,
2013-05-13 05:58:00,25.3,7.0,29.47,West,270,11.9,-999.0,45,-99.99,,,0.00,Acu-Link.com,2013-05-13 13:58:00,
2013-05-13 06:14:00,25.0,6.7,29.48,WSW,247,9.4,-999.0,45,-99.99,,,0.00,Acu-Link.com,2013-05-13 14:14:00,
2013-05-13 06:29:00,24.3,5.6,29.48,West,270,12.5,-999.0,44,-99.99,,,0.00,Acu-Link.com,2013-05-13 14:29:00,
2013-05-13 06:44:00,23.4,5.7,29.49,WSW,247,9.9,-999.0,46,-99.99,,,0.00,Acu-Link.com,2013-05-13 14:44:00,
2013-05-13 07:00:00,22.5,5.8,29.49,WSW,247,13.0,-999.0,48,-99.99,,,0.00,Acu-Link.com,2013-05-13 15:00:00,
2013-05-13 07:15:00,22.3,6.5,29.49,WSW,247,13.5,-999.0,50,-99.99,,,0.00,Acu-Link.com,2013-05-13 15:15:00,
2013-05-13 07:30:00,21.7,6.0,29.50,WSW,247,11.4,-999.0,50,-99.99,,,0.00,Acu-Link.com,2013-05-13 15:30:00,
2013-05-13 07:45:00,22.1,6.3,29.50,West,270,13.5,-999.0,50,-99.99,,,0.00,Acu-Link.com,2013-05-13 15:45:00,
2013-05-13 08:00:00,21.7,6.0,29.51,WSW,247,7.3,-999.0,50,-99.99,,,0.00,Acu-Link.com,2013-05-13 16:00:00,
2013-05-13 08:16:00,21.9,5.7,29.50,West,270,14.5,-999.0,49,-99.99,,,0.00,Acu-Link.com,2013-05-13 16:16:00,
2013-05-13 08:31:00,21.7,4.6,29.50,West,270,14.0,-999.0,47,-99.99,,,0.00,Acu-Link.com,2013-05-13 16:31:00,
2013-05-13 08:46:00,22.5,5.8,29.50,West,270,15.0,-999.0,48,-99.99,,,0.00,Acu-Link.com,2013-05-13 16:46:00,
2013-05-13 09:01:00,21.9,4.8,29.51,West,270,10.4,-999.0,47,-99.99,,,0.00,Acu-Link.com,2013-05-13 17:01:00,
2013-05-13 09:16:00,22.3,5.2,29.49,WSW,247,9.4,-999.0,47,-99.99,,,0.00,Acu-Link.com,2013-05-13 17:16:00,
2013-05-13 09:32:00,22.5,4.9,29.49,West,270,8.3,-999.0,46,-99.99,,,0.00,Acu-Link.com,2013-05-13 17:32:00,
2013-05-13 09:47:00,23.2,5.0,29.48,NW,315,7.3,-999.0,45,-99.99,,,0.00,Acu-Link.com,2013-05-13 17:47:00,
2013-05-13 10:02:00,24.1,4.9,29.48,WSW,247,10.9,-999.0,43,-99.99,,,0.00,Acu-Link.com,2013-05-13 18:02:00,
2013-05-13 10:17:00,23.9,4.2,29.47,WSW,247,7.3,-999.0,42,-99.99,,,0.00,Acu-Link.com,2013-05-13 18:17:00,
2013-05-13 10:33:00,25.2,5.9,29.45,WSW,247,10.9,-999.0,43,-99.99,,,0.00,Acu-Link.com,2013-05-13 18:33:00,
2013-05-13 10:48:00,24.3,5.6,29.45,WSW,247,10.4,-999.0,44,-99.99,,,0.00,Acu-Link.com,2013-05-13 18:48:00,
2013-05-13 11:03:00,25.2,5.9,29.46,WSW,247,13.0,-999.0,43,-99.99,,,0.00,Acu-Link.com,2013-05-13 19:03:00,
2013-05-13 11:18:00,25.5,6.2,29.46,WSW,247,13.0,-999.0,43,-99.99,,,0.00,Acu-Link.com,2013-05-13 19:18:00,
2013-05-13 11:34:00,26.4,5.9,29.46,West,270,7.8,-999.0,41,-99.99,,,0.00,Acu-Link.com,2013-05-13 19:34:00,
2013-05-13 11:49:00,27.5,4.7,29.45,WSW,247,12.5,-999.0,37,-99.99,,,0.00,Acu-Link.com,2013-05-13 19:49:00,
2013-05-13 12:04:00,28.4,5.5,29.44,West,270,8.3,-999.0,37,-99.99,,,0.00,Acu-Link.com,2013-05-13 20:04:00,
2013-05-13 12:19:00,28.6,5.1,29.45,WSW,247,7.8,-999.0,36,-99.99,,,0.00,Acu-Link.com,2013-05-13 20:19:00,
2013-05-13 12:35:00,29.1,4.3,29.46,West,270,10.9,-999.0,34,-99.99,,,0.00,Acu-Link.com,2013-05-13 20:35:00,
2013-05-13 12:50:00,29.1,3.6,29.45,SW,225,11.9,-999.0,33,-99.99,,,0.00,Acu-Link.com,2013-05-13 20:50:00,
2013-05-13 13:05:00,29.5,4.6,29.45,SW,225,7.8,-999.0,34,-99.99,,,0.00,Acu-Link.com,2013-05-13 21:05:00,
2013-05-13 13:20:00,29.5,5.3,29.46,SW,225,8.9,-999.0,35,-99.99,,,0.00,Acu-Link.com,2013-05-13 21:20:00,
2013-05-13 13:35:00,29.8,4.9,29.46,WSW,247,12.5,-999.0,34,-99.99,,,0.00,Acu-Link.com,2013-05-13 21:35:00,
2013-05-13 13:51:00,30.4,5.4,29.45,West,270,7.3,-999.0,34,-99.99,,,0.00,Acu-Link.com,2013-05-13 21:51:00,
2013-05-13 14:06:00,31.1,7.3,29.44,WSW,247,5.3,-999.0,36,-99.99,,,0.00,Acu-Link.com,2013-05-13 22:06:00,
2013-05-13 14:21:00,31.1,6.0,29.44,WSW,247,12.5,-999.0,34,-99.99,,,0.00,Acu-Link.com,2013-05-13 22:21:00,
2013-05-13 14:36:00,30.4,5.4,29.44,West,270,10.9,-999.0,34,-99.99,,,0.00,Acu-Link.com,2013-05-13 22:36:00,
2013-05-13 14:51:00,32.0,7.5,29.44,West,270,10.4,-999.0,35,-99.99,,,0.00,Acu-Link.com,2013-05-13 22:51:00,
2013-05-13 15:07:00,31.6,7.7,29.43,West,270,10.4,-999.0,36,-99.99,,,0.00,Acu-Link.com,2013-05-13 23:07:00,
2013-05-13 15:22:00,30.6,7.5,29.44,WSW,247,9.9,-999.0,37,-99.99,,,0.00,Acu-Link.com,2013-05-13 23:22:00,
2013-05-13 15:37:00,32.2,7.7,29.44,West,270,9.4,-999.0,35,-99.99,,,0.00,Acu-Link.com,2013-05-13 23:37:00,
2013-05-13 15:52:00,32.7,8.1,29.43,SW,225,8.3,-999.0,35,-99.99,,,0.00,Acu-Link.com,2013-05-13 23:52:00,
2013-05-13 16:08:00,33.6,8.3,29.43,WSW,247,13.0,-999.0,34,-99.99,,,0.00,Acu-Link.com,2013-05-14 00:08:00,
2013-05-13 16:23:00,32.2,7.7,29.43,WSW,247,10.4,-999.0,35,-99.99,,,0.00,Acu-Link.com,2013-05-14 00:23:00,
2013-05-13 16:38:00,33.4,8.1,29.42,West,270,8.3,-999.0,34,-99.99,,,0.00,Acu-Link.com,2013-05-14 00:38:00,
2013-05-13 16:53:00,33.1,8.5,29.43,West,270,7.3,-999.0,35,-99.99,,,0.00,Acu-Link.com,2013-05-14 00:53:00,
2013-05-13 17:08:00,33.8,9.1,29.41,WSW,247,8.3,-999.0,35,-99.99,,,0.00,Acu-Link.com,2013-05-14 01:08:00,
2013-05-13 17:24:00,34.0,10.5,29.42,WSW,247,6.8,-999.0,37,-99.99,,,0.00,Acu-Link.com,2013-05-14 01:24:00,
2013-05-13 17:39:00,34.2,9.4,29.42,West,270,6.3,-999.0,35,-99.99,,,0.00,Acu-Link.com,2013-05-14 01:39:00,
2013-05-13 17:54:00,34.7,9.9,29.41,WSW,247,8.3,-999.0,35,-99.99,,,0.00,Acu-Link.com,2013-05-14 01:54:00,
2013-05-13 18:10:00,34.0,9.3,29.42,SW,225,5.8,-999.0,35,-99.99,,,0.00,Acu-Link.com,2013-05-14 02:10:00,
2013-05-13 18:25:00,34.0,9.9,29.41,WSW,247,10.4,-999.0,36,-99.99,,,0.00,Acu-Link.com,2013-05-14 02:25:00,
2013-05-13 18:40:00,34.7,9.9,29.41,West,270,8.9,-999.0,35,-99.99,,,0.00,Acu-Link.com,2013-05-14 02:40:00,
2013-05-13 18:55:00,35.6,11.3,29.41,West,270,7.8,-999.0,36,-99.99,,,0.00,Acu-Link.com,2013-05-14 02:55:00,
2013-05-13 19:10:00,35.2,9.7,29.41,WSW,247,7.3,-999.0,34,-99.99,,,0.00,Acu-Link.com,2013-05-14 03:10:00,
2013-05-13 19:26:00,35.1,10.2,29.42,WSW,247,5.8,-999.0,35,-99.99,,,0.00,Acu-Link.com,2013-05-14 03:26:00,
2013-05-13 19:41:00,34.2,10.1,29.41,WSW,247,5.8,-999.0,36,-99.99,,,0.00,Acu-Link.com,2013-05-14 03:41:00,
2013-05-13 19:56:00,34.2,10.7,29.42,WSW,247,11.9,-999.0,37,-99.99,,,0.00,Acu-Link.com,2013-05-14 03:56:00,
2013-05-13 20:11:00,34.3,10.2,29.41,West,270,10.9,-999.0,36,-99.99,,,0.00,Acu-Link.com,2013-05-14 04:11:00,
2013-05-13 20:27:00,34.5,10.3,29.41,WSW,247,10.4,-999.0,36,-99.99,,,0.00,Acu-Link.com,2013-05-14 04:27:00,
2013-05-13 20:42:00,34.2,10.1,29.42,WSW,247,8.3,-999.0,36,-99.99,,,0.00,Acu-Link.com,2013-05-14 04:42:00,
2013-05-13 20:57:00,34.2,9.4,29.42,West,270,5.8,-999.0,35,-99.99,,,0.00,Acu-Link.com,2013-05-14 04:57:00,
2013-05-13 21:12:00,33.4,10.0,29.42,West,270,9.4,-999.0,37,-99.99,,,0.00,Acu-Link.com,2013-05-14 05:12:00,
2013-05-13 21:27:00,32.9,10.1,29.43,West,270,8.9,-999.0,38,-99.99,,,0.00,Acu-Link.com,2013-05-14 05:27:00,
2013-05-13 21:43:00,32.5,9.7,29.43,West,270,5.3,-999.0,38,-99.99,,,0.00,Acu-Link.com,2013-05-14 05:43:00,
2013-05-13 21:58:00,32.0,9.9,29.44,West,270,4.2,-999.0,39,-99.99,,,0.00,Acu-Link.com,2013-05-14 05:58:00,
2013-05-13 22:13:00,31.5,10.0,29.45,West,270,3.2,-999.0,40,-99.99,,,0.00,Acu-Link.com,2013-05-14 06:13:00,
2013-05-13 22:28:00,30.7,9.8,29.45,West,270,4.2,-999.0,41,-99.99,,,0.00,Acu-Link.com,2013-05-14 06:28:00,
2013-05-13 22:43:00,29.5,9.8,29.46,West,270,4.2,-999.0,43,-99.99,,,0.00,Acu-Link.com,2013-05-14 06:43:00,
2013-05-13 22:59:00,28.6,10.0,29.46,West,270,4.2,-999.0,45,-99.99,,,0.00,Acu-Link.com,2013-05-14 06:59:00,
2013-05-13 23:14:00,28.0,9.4,29.46,West,270,3.7,-999.0,45,-99.99,,,0.00,Acu-Link.com,2013-05-14 07:14:00,
2013-05-13 23:29:00,27.1,9.6,29.46,West,270,2.7,-999.0,47,-99.99,,,0.00,Acu-Link.com,2013-05-14 07:29:00,
2013-05-13 23:44:00,26.8,9.8,29.46,West,270,2.7,-999.0,48,-99.99,,,0.00,Acu-Link.com,2013-05-14 07:44:00,